sensor_id;sensor_type;location;lat;lon;timestamp;pressure;altitude;pressure_sealevel;temperature;humidity
18500;BME280;9379;52.134;11.576;2023-03-04T00:01:24;101447.38;;;5.70;86.68
18500;BME280;9379;52.134;11.576;2023-03-04T00:03:51;101446.53;;;5.70;86.48
18500;BME280;9379;52.134;11.576;2023-03-04T00:06:18;101458.44;;;5.77;85.88
18500;BME280;9379;52.134;11.576;2023-03-04T00:08:44;101438.19;;;5.62;86.17
18500;BME280;9379;52.134;11.576;2023-03-04T00:11:11;101447.69;;;5.64;86.53
18500;BME280;9379;52.134;11.576;2023-03-04T00:13:38;101442.38;;;5.33;87.11
18500;BME280;9379;52.134;11.576;2023-03-04T00:16:05;101439.22;;;5.75;85.92
18500;BME280;9379;52.134;11.576;2023-03-04T00:18:33;101440.91;;;5.60;85.73
18500;BME280;9379;52.134;11.576;2023-03-04T00:21:00;101434.53;;;5.31;87.81
18500;BME280;9379;52.134;11.576;2023-03-04T00:23:27;101431.53;;;5.54;86.78
18500;BME280;9379;52.134;11.576;2023-03-04T00:25:54;101429.03;;;5.36;87.31
18500;BME280;9379;52.134;11.576;2023-03-04T00:28:21;101428.94;;;5.21;89.01
18500;BME280;9379;52.134;11.576;2023-03-04T00:30:47;101423.03;;;5.16;89.86
18500;BME280;9379;52.134;11.576;2023-03-04T00:33:14;101429.09;;;4.84;90.80
18500;BME280;9379;52.134;11.576;2023-03-04T00:35:42;101435.53;;;5.13;90.94
18500;BME280;9379;52.134;11.576;2023-03-04T00:38:09;101436.69;;;4.73;92.49
18500;BME280;9379;52.134;11.576;2023-03-04T00:40:36;101433.56;;;5.16;90.95
18500;BME280;9379;52.134;11.576;2023-03-04T00:43:03;101428.22;;;5.18;90.51
18500;BME280;9379;52.134;11.576;2023-03-04T00:45:30;101431.91;;;5.31;90.74
18500;BME280;9379;52.134;11.576;2023-03-04T00:47:56;101423.75;;;5.36;90.60
18500;BME280;9379;52.134;11.576;2023-03-04T00:50:23;101411.44;;;5.52;90.37
18500;BME280;9379;52.134;11.576;2023-03-04T00:52:51;101414.09;;;5.19;90.64
18500;BME280;9379;52.134;11.576;2023-03-04T00:55:18;101418.16;;;5.42;90.83
18500;BME280;9379;52.134;11.576;2023-03-04T00:57:45;101415.31;;;5.29;91.11
18500;BME280;9379;52.134;11.576;2023-03-04T01:02:41;101421.81;;;5.55;90.69
18500;BME280;9379;52.134;11.576;2023-03-04T01:05:09;101419.00;;;5.42;90.08
18500;BME280;9379;52.134;11.576;2023-03-04T01:07:35;101414.75;;;5.55;89.96
18500;BME280;9379;52.134;11.576;2023-03-04T01:10:05;101409.94;;;5.64;89.80
18500;BME280;9379;52.134;11.576;2023-03-04T01:12:32;101410.97;;;5.61;90.14
18500;BME280;9379;52.134;11.576;2023-03-04T01:14:59;101408.22;;;5.63;90.19
18500;BME280;9379;52.134;11.576;2023-03-04T01:17:25;101402.47;;;5.56;90.13
18500;BME280;9379;52.134;11.576;2023-03-04T01:19:52;101396.16;;;5.59;89.50
18500;BME280;9379;52.134;11.576;2023-03-04T01:22:19;101391.91;;;5.56;89.81
18500;BME280;9379;52.134;11.576;2023-03-04T01:24:46;101384.00;;;5.56;90.21
18500;BME280;9379;52.134;11.576;2023-03-04T01:27:15;101386.47;;;5.59;89.78
18500;BME280;9379;52.134;11.576;2023-03-04T01:29:41;101386.09;;;5.65;89.78
18500;BME280;9379;52.134;11.576;2023-03-04T01:32:08;101380.25;;;5.60;90.21
18500;BME280;9379;52.134;11.576;2023-03-04T01:34:35;101368.50;;;5.66;89.97
18500;BME280;9379;52.134;11.576;2023-03-04T01:37:01;101368.09;;;5.73;89.50
18500;BME280;9379;52.134;11.576;2023-03-04T01:39:28;101365.31;;;5.92;89.13
18500;BME280;9379;52.134;11.576;2023-03-04T01:41:55;101357.31;;;5.94;88.90
18500;BME280;9379;52.134;11.576;2023-03-04T01:44:23;101355.22;;;5.67;89.63
18500;BME280;9379;52.134;11.576;2023-03-04T01:46:52;101351.25;;;5.60;90.48
18500;BME280;9379;52.134;11.576;2023-03-04T01:49:19;101346.81;;;5.76;89.50
18500;BME280;9379;52.134;11.576;2023-03-04T01:51:48;101340.94;;;5.71;89.27
18500;BME280;9379;52.134;11.576;2023-03-04T01:54:17;101334.28;;;6.11;88.41
18500;BME280;9379;52.134;11.576;2023-03-04T01:56:45;101334.97;;;6.15;88.71
18500;BME280;9379;52.134;11.576;2023-03-04T01:59:13;101326.31;;;5.66;89.93
18500;BME280;9379;52.134;11.576;2023-03-04T02:01:45;101325.06;;;5.57;90.35
18500;BME280;9379;52.134;11.576;2023-03-04T02:04:13;101332.63;;;5.79;89.47
18500;BME280;9379;52.134;11.576;2023-03-04T02:06:42;101333.38;;;5.65;90.18
18500;BME280;9379;52.134;11.576;2023-03-04T02:09:09;101320.19;;;5.81;89.85
18500;BME280;9379;52.134;11.576;2023-03-04T02:11:37;101310.53;;;6.11;88.67
18500;BME280;9379;52.134;11.576;2023-03-04T02:14:04;101310.25;;;5.70;89.91
18500;BME280;9379;52.134;11.576;2023-03-04T02:16:32;101301.97;;;5.76;89.80
18500;BME280;9379;52.134;11.576;2023-03-04T02:19:00;101280.88;;;5.92;88.96
18500;BME280;9379;52.134;11.576;2023-03-04T02:21:29;101297.56;;;6.23;88.27
18500;BME280;9379;52.134;11.576;2023-03-04T02:24:03;101300.09;;;5.78;90.04
18500;BME280;9379;52.134;11.576;2023-03-04T02:26:33;101291.44;;;5.92;89.49
18500;BME280;9379;52.134;11.576;2023-03-04T02:29:01;101293.50;;;6.17;88.87
18500;BME280;9379;52.134;11.576;2023-03-04T02:31:31;101302.22;;;5.88;89.34
18500;BME280;9379;52.134;11.576;2023-03-04T02:34:01;101295.81;;;6.07;89.31
18500;BME280;9379;52.134;11.576;2023-03-04T02:36:29;101297.59;;;6.07;89.06
18500;BME280;9379;52.134;11.576;2023-03-04T02:39:02;101292.84;;;5.98;89.79
18500;BME280;9379;52.134;11.576;2023-03-04T02:41:30;101287.41;;;6.01;90.02
18500;BME280;9379;52.134;11.576;2023-03-04T02:43:58;101293.81;;;6.27;89.48
18500;BME280;9379;52.134;11.576;2023-03-04T02:46:25;101284.25;;;6.24;89.05
18500;BME280;9379;52.134;11.576;2023-03-04T02:48:52;101285.25;;;6.07;89.94
18500;BME280;9379;52.134;11.576;2023-03-04T02:51:18;101287.72;;;6.10;89.91
18500;BME280;9379;52.134;11.576;2023-03-04T02:53:45;101281.78;;;6.07;90.35
18500;BME280;9379;52.134;11.576;2023-03-04T02:56:12;101284.75;;;6.31;90.03
18500;BME280;9379;52.134;11.576;2023-03-04T02:58:39;101288.69;;;6.24;90.23
18500;BME280;9379;52.134;11.576;2023-03-04T03:01:07;101290.22;;;6.28;90.17
18500;BME280;9379;52.134;11.576;2023-03-04T03:03:34;101274.53;;;6.25;90.28
18500;BME280;9379;52.134;11.576;2023-03-04T03:06:00;101280.78;;;6.24;90.13
18500;BME280;9379;52.134;11.576;2023-03-04T03:08:27;101269.00;;;6.15;90.88
18500;BME280;9379;52.134;11.576;2023-03-04T03:10:54;101277.16;;;6.10;90.91
18500;BME280;9379;52.134;11.576;2023-03-04T03:13:21;101266.78;;;6.52;89.59
18500;BME280;9379;52.134;11.576;2023-03-04T03:15:48;101265.09;;;6.51;89.56
18500;BME280;9379;52.134;11.576;2023-03-04T03:18:16;101263.66;;;6.59;89.35
18500;BME280;9379;52.134;11.576;2023-03-04T03:20:42;101258.97;;;6.50;89.63
18500;BME280;9379;52.134;11.576;2023-03-04T03:23:09;101268.84;;;6.47;89.91
18500;BME280;9379;52.134;11.576;2023-03-04T03:25:36;101263.84;;;6.42;90.56
18500;BME280;9379;52.134;11.576;2023-03-04T03:28:03;101264.50;;;6.46;90.54
18500;BME280;9379;52.134;11.576;2023-03-04T03:30:30;101256.97;;;6.68;89.69
18500;BME280;9379;52.134;11.576;2023-03-04T03:32:57;101255.28;;;6.67;89.27
18500;BME280;9379;52.134;11.576;2023-03-04T03:35:25;101257.22;;;6.35;90.46
18500;BME280;9379;52.134;11.576;2023-03-04T03:37:52;101261.66;;;6.34;90.85
18500;BME280;9379;52.134;11.576;2023-03-04T03:40:18;101252.63;;;6.53;90.07
18500;BME280;9379;52.134;11.576;2023-03-04T03:42:45;101247.66;;;6.62;89.99
18500;BME280;9379;52.134;11.576;2023-03-04T03:45:12;101256.50;;;6.61;90.04
18500;BME280;9379;52.134;11.576;2023-03-04T03:47:39;101258.56;;;6.42;90.49
18500;BME280;9379;52.134;11.576;2023-03-04T03:50:06;101255.19;;;6.68;90.28
18500;BME280;9379;52.134;11.576;2023-03-04T03:52:34;101258.31;;;6.61;89.81
18500;BME280;9379;52.134;11.576;2023-03-04T03:55:01;101257.47;;;6.60;90.02
18500;BME280;9379;52.134;11.576;2023-03-04T03:57:28;101250.09;;;6.65;90.75
18500;BME280;9379;52.134;11.576;2023-03-04T03:59:55;101254.91;;;6.73;90.54
18500;BME280;9379;52.134;11.576;2023-03-04T04:02:22;101249.13;;;6.81;89.52
18500;BME280;9379;52.134;11.576;2023-03-04T04:04:49;101245.38;;;6.70;90.91
18500;BME280;9379;52.134;11.576;2023-03-04T04:07:16;101245.81;;;7.06;89.36
18500;BME280;9379;52.134;11.576;2023-03-04T04:09:44;101234.72;;;6.86;89.66
18500;BME280;9379;52.134;11.576;2023-03-04T04:12:13;101235.00;;;6.96;89.66
18500;BME280;9379;52.134;11.576;2023-03-04T04:14:41;101238.19;;;6.87;90.54
18500;BME280;9379;52.134;11.576;2023-03-04T04:17:08;101233.84;;;6.57;91.02
18500;BME280;9379;52.134;11.576;2023-03-04T04:19:34;101235.47;;;6.74;91.03
18500;BME280;9379;52.134;11.576;2023-03-04T04:22:02;101237.16;;;6.75;91.61
18500;BME280;9379;52.134;11.576;2023-03-04T04:24:29;101233.00;;;6.85;90.65
18500;BME280;9379;52.134;11.576;2023-03-04T04:26:57;101224.69;;;6.91;90.54
18500;BME280;9379;52.134;11.576;2023-03-04T04:29:23;101237.91;;;6.77;91.54
18500;BME280;9379;52.134;11.576;2023-03-04T04:31:50;101239.03;;;6.44;92.70
18500;BME280;9379;52.134;11.576;2023-03-04T04:34:17;101238.78;;;6.49;92.63
18500;BME280;9379;52.134;11.576;2023-03-04T04:36:44;101224.63;;;6.64;92.28
18500;BME280;9379;52.134;11.576;2023-03-04T04:39:10;101231.59;;;6.65;92.13
18500;BME280;9379;52.134;11.576;2023-03-04T04:41:39;101232.06;;;6.43;92.47
18500;BME280;9379;52.134;11.576;2023-03-04T04:44:07;101241.88;;;6.84;91.97
18500;BME280;9379;52.134;11.576;2023-03-04T04:46:35;101233.69;;;6.60;92.83
18500;BME280;9379;52.134;11.576;2023-03-04T04:49:02;101235.34;;;6.90;91.56
18500;BME280;9379;52.134;11.576;2023-03-04T04:51:29;101235.72;;;6.98;91.05
18500;BME280;9379;52.134;11.576;2023-03-04T04:53:57;101215.75;;;6.65;91.49
18500;BME280;9379;52.134;11.576;2023-03-04T04:56:24;101231.19;;;7.00;90.87
18500;BME280;9379;52.134;11.576;2023-03-04T04:58:52;101233.78;;;6.73;92.08
18500;BME280;9379;52.134;11.576;2023-03-04T05:01:23;101220.69;;;6.71;92.33
18500;BME280;9379;52.134;11.576;2023-03-04T05:03:50;101225.25;;;6.82;92.38
18500;BME280;9379;52.134;11.576;2023-03-04T05:06:20;101226.88;;;6.70;93.21
18500;BME280;9379;52.134;11.576;2023-03-04T05:08:47;101224.72;;;6.77;93.09
18500;BME280;9379;52.134;11.576;2023-03-04T05:11:14;101224.03;;;6.88;92.57
18500;BME280;9379;52.134;11.576;2023-03-04T05:13:41;101224.72;;;6.77;93.68
18500;BME280;9379;52.134;11.576;2023-03-04T05:16:08;101216.63;;;6.52;94.24
18500;BME280;9379;52.134;11.576;2023-03-04T05:18:36;101213.66;;;6.70;93.96
18500;BME280;9379;52.134;11.576;2023-03-04T05:21:04;101218.56;;;6.91;92.96
18500;BME280;9379;52.134;11.576;2023-03-04T05:23:32;101219.59;;;6.88;93.42
18500;BME280;9379;52.134;11.576;2023-03-04T05:26:00;101226.38;;;7.07;92.57
18500;BME280;9379;52.134;11.576;2023-03-04T05:28:27;101210.41;;;7.08;92.53
18500;BME280;9379;52.134;11.576;2023-03-04T05:30:54;101200.25;;;6.88;92.95
18500;BME280;9379;52.134;11.576;2023-03-04T05:33:21;101214.53;;;6.85;93.71
18500;BME280;9379;52.134;11.576;2023-03-04T05:35:49;101180.97;;;7.00;92.75
18500;BME280;9379;52.134;11.576;2023-03-04T05:38:17;101212.97;;;7.10;92.85
18500;BME280;9379;52.134;11.576;2023-03-04T05:40:46;101205.06;;;6.95;93.22
18500;BME280;9379;52.134;11.576;2023-03-04T05:43:13;101210.31;;;7.10;92.80
18500;BME280;9379;52.134;11.576;2023-03-04T05:49:03;101205.28;;;6.64;96.07
18500;BME280;9379;52.134;11.576;2023-03-04T05:51:31;101204.25;;;6.66;95.90
18500;BME280;9379;52.134;11.576;2023-03-04T05:53:58;101199.53;;;6.71;95.31
18500;BME280;9379;52.134;11.576;2023-03-04T05:56:25;101203.66;;;6.90;95.28
18500;BME280;9379;52.134;11.576;2023-03-04T06:05:16;101200.63;;;6.82;95.98
18500;BME280;9379;52.134;11.576;2023-03-04T06:11:06;101209.16;;;6.72;96.38
18500;BME280;9379;52.134;11.576;2023-03-04T06:13:33;101193.75;;;6.79;96.69
18500;BME280;9379;52.134;11.576;2023-03-04T06:16:00;101201.31;;;6.85;96.19
18500;BME280;9379;52.134;11.576;2023-03-04T06:18:28;101199.63;;;6.84;96.34
18500;BME280;9379;52.134;11.576;2023-03-04T06:20:56;101204.06;;;6.84;97.17
18500;BME280;9379;52.134;11.576;2023-03-04T06:23:23;101199.09;;;6.92;96.84
18500;BME280;9379;52.134;11.576;2023-03-04T06:25:51;101205.16;;;6.80;97.68
18500;BME280;9379;52.134;11.576;2023-03-04T06:28:21;101210.34;;;6.95;97.18
18500;BME280;9379;52.134;11.576;2023-03-04T06:30:50;101209.88;;;6.89;97.72
18500;BME280;9379;52.134;11.576;2023-03-04T06:33:16;101219.69;;;7.01;97.21
18500;BME280;9379;52.134;11.576;2023-03-04T06:35:43;101213.84;;;6.96;97.49
18500;BME280;9379;52.134;11.576;2023-03-04T06:38:10;101193.28;;;6.87;97.57
18500;BME280;9379;52.134;11.576;2023-03-04T06:40:37;101212.69;;;7.00;97.03
18500;BME280;9379;52.134;11.576;2023-03-04T06:43:03;101220.16;;;6.93;98.35
18500;BME280;9379;52.134;11.576;2023-03-04T06:45:32;101220.63;;;7.00;98.00
18500;BME280;9379;52.134;11.576;2023-03-04T06:47:58;101222.00;;;7.20;97.43
18500;BME280;9379;52.134;11.576;2023-03-04T06:50:25;101226.03;;;7.25;96.81
18500;BME280;9379;52.134;11.576;2023-03-04T06:52:52;101227.47;;;7.17;97.55
18500;BME280;9379;52.134;11.576;2023-03-04T06:55:21;101223.91;;;7.03;98.68
18500;BME280;9379;52.134;11.576;2023-03-04T06:57:48;101224.34;;;7.24;97.78
18500;BME280;9379;52.134;11.576;2023-03-04T07:08:02;101209.38;;;7.38;97.50
18500;BME280;9379;52.134;11.576;2023-03-04T07:10:29;101210.28;;;7.24;98.42
18500;BME280;9379;52.134;11.576;2023-03-04T07:12:55;101211.56;;;7.58;96.87
18500;BME280;9379;52.134;11.576;2023-03-04T07:15:22;101213.13;;;7.21;98.23
18500;BME280;9379;52.134;11.576;2023-03-04T07:17:49;101215.72;;;7.08;98.93
18500;BME280;9379;52.134;11.576;2023-03-04T07:20:17;101223.53;;;7.10;98.87
18500;BME280;9379;52.134;11.576;2023-03-04T07:22:44;101208.72;;;6.93;99.32
18500;BME280;9379;52.134;11.576;2023-03-04T07:25:12;101211.53;;;7.18;99.01
18500;BME280;9379;52.134;11.576;2023-03-04T07:27:41;101224.28;;;7.12;98.27
18500;BME280;9379;52.134;11.576;2023-03-04T07:30:11;101205.84;;;7.24;98.63
18500;BME280;9379;52.134;11.576;2023-03-04T07:32:38;101204.03;;;6.98;99.96
18500;BME280;9379;52.134;11.576;2023-03-04T07:35:05;101211.88;;;6.85;100.00
18500;BME280;9379;52.134;11.576;2023-03-04T07:37:32;101220.91;;;7.10;100.00
18500;BME280;9379;52.134;11.576;2023-03-04T07:39:59;101215.19;;;7.30;100.00
18500;BME280;9379;52.134;11.576;2023-03-04T07:42:27;101224.47;;;7.09;100.00
18500;BME280;9379;52.134;11.576;2023-03-04T07:44:54;101226.13;;;6.97;100.00
18500;BME280;9379;52.134;11.576;2023-03-04T07:47:21;101223.53;;;7.10;100.00
18500;BME280;9379;52.134;11.576;2023-03-04T07:49:47;101226.88;;;7.26;100.00
18500;BME280;9379;52.134;11.576;2023-03-04T07:52:14;101216.41;;;7.51;100.00
18500;BME280;9379;52.134;11.576;2023-03-04T07:54:41;101218.47;;;7.34;99.94
18500;BME280;9379;52.134;11.576;2023-03-04T07:57:08;101221.97;;;7.34;100.00
18500;BME280;9379;52.134;11.576;2023-03-04T07:59:36;101221.25;;;7.45;98.80
18500;BME280;9379;52.134;11.576;2023-03-04T08:02:03;101216.41;;;7.51;98.36
18500;BME280;9379;52.134;11.576;2023-03-04T08:04:29;101213.00;;;7.76;96.87
18500;BME280;9379;52.134;11.576;2023-03-04T08:06:56;101211.09;;;7.78;95.91
18500;BME280;9379;52.134;11.576;2023-03-04T08:09:23;101218.47;;;7.73;97.22
18500;BME280;9379;52.134;11.576;2023-03-04T08:11:50;101220.84;;;7.78;96.95
18500;BME280;9379;52.134;11.576;2023-03-04T08:14:17;101214.78;;;7.36;98.47
18500;BME280;9379;52.134;11.576;2023-03-04T08:16:45;101219.84;;;7.39;99.15
18500;BME280;9379;52.134;11.576;2023-03-04T08:19:12;101215.38;;;7.54;100.00
18500;BME280;9379;52.134;11.576;2023-03-04T08:21:39;101197.75;;;7.67;99.67
18500;BME280;9379;52.134;11.576;2023-03-04T08:24:05;101215.31;;;7.68;99.96
18500;BME280;9379;52.134;11.576;2023-03-04T08:26:35;101218.34;;;7.62;99.67
18500;BME280;9379;52.134;11.576;2023-03-04T08:29:05;101213.19;;;7.73;99.59
18500;BME280;9379;52.134;11.576;2023-03-04T08:31:32;101208.59;;;8.02;97.94
18500;BME280;9379;52.134;11.576;2023-03-04T08:34:01;101204.50;;;7.71;98.93
18500;BME280;9379;52.134;11.576;2023-03-04T08:36:28;101197.56;;;7.83;98.80
18500;BME280;9379;52.134;11.576;2023-03-04T08:38:55;101214.59;;;7.79;99.46
18500;BME280;9379;52.134;11.576;2023-03-04T08:41:21;101205.03;;;7.37;100.00
18500;BME280;9379;52.134;11.576;2023-03-04T08:43:50;101212.47;;;7.84;99.53
18500;BME280;9379;52.134;11.576;2023-03-04T08:46:17;101206.78;;;7.90;99.56
18500;BME280;9379;52.134;11.576;2023-03-04T08:48:44;101215.66;;;7.76;100.00
18500;BME280;9379;52.134;11.576;2023-03-04T08:51:13;101207.88;;;7.60;100.00
18500;BME280;9379;52.134;11.576;2023-03-04T08:53:41;101198.63;;;7.93;99.53
18500;BME280;9379;52.134;11.576;2023-03-04T08:56:12;101210.63;;;7.59;100.00
18500;BME280;9379;52.134;11.576;2023-03-04T08:58:39;101211.72;;;7.69;100.00
18500;BME280;9379;52.134;11.576;2023-03-04T09:01:07;101209.78;;;7.58;100.00
18500;BME280;9379;52.134;11.576;2023-03-04T09:03:36;101184.19;;;7.32;100.00
18500;BME280;9379;52.134;11.576;2023-03-04T09:06:04;101202.47;;;7.62;100.00
18500;BME280;9379;52.134;11.576;2023-03-04T09:08:33;101204.44;;;7.46;100.00
18500;BME280;9379;52.134;11.576;2023-03-04T09:11:00;101195.34;;;7.50;100.00
18500;BME280;9379;52.134;11.576;2023-03-04T09:13:28;101196.22;;;7.63;99.60
18500;BME280;9379;52.134;11.576;2023-03-04T09:15:55;101193.41;;;7.66;98.89
18500;BME280;9379;52.134;11.576;2023-03-04T09:18:23;101195.38;;;8.15;97.31
18500;BME280;9379;52.134;11.576;2023-03-04T09:20:50;101187.66;;;8.25;96.95
18500;BME280;9379;52.134;11.576;2023-03-04T09:23:17;101193.56;;;8.28;96.08
18500;BME280;9379;52.134;11.576;2023-03-04T09:25:46;101191.66;;;7.92;98.38
18500;BME280;9379;52.134;11.576;2023-03-04T09:28:14;101192.28;;;8.21;96.08
18500;BME280;9379;52.134;11.576;2023-03-04T09:30:42;101197.28;;;8.26;95.96
18500;BME280;9379;52.134;11.576;2023-03-04T09:33:09;101179.16;;;8.32;96.40
18500;BME280;9379;52.134;11.576;2023-03-04T09:35:36;101201.31;;;8.31;95.88
18500;BME280;9379;52.134;11.576;2023-03-04T09:38:02;101198.41;;;7.96;98.15
18500;BME280;9379;52.134;11.576;2023-03-04T09:40:31;101201.69;;;7.87;100.00
18500;BME280;9379;52.134;11.576;2023-03-04T09:43:02;101188.97;;;7.67;100.00
18500;BME280;9379;52.134;11.576;2023-03-04T09:45:34;101195.66;;;7.98;100.00
18500;BME280;9379;52.134;11.576;2023-03-04T09:48:02;101181.28;;;8.27;100.00
18500;BME280;9379;52.134;11.576;2023-03-04T09:50:32;101194.81;;;7.84;100.00
18500;BME280;9379;52.134;11.576;2023-03-04T09:53:06;101192.25;;;7.83;100.00
18500;BME280;9379;52.134;11.576;2023-03-04T09:55:44;101179.06;;;8.21;100.00
18500;BME280;9379;52.134;11.576;2023-03-04T09:58:25;101181.06;;;8.05;100.00
18500;BME280;9379;52.134;11.576;2023-03-04T10:00:55;101176.63;;;8.31;98.86
18500;BME280;9379;52.134;11.576;2023-03-04T10:03:27;101178.09;;;7.97;97.05
18500;BME280;9379;52.134;11.576;2023-03-04T10:06:01;101178.75;;;7.87;98.18
18500;BME280;9379;52.134;11.576;2023-03-04T10:08:36;101176.34;;;8.35;97.65
18500;BME280;9379;52.134;11.576;2023-03-04T10:11:10;101175.78;;;8.17;98.80
18500;BME280;9379;52.134;11.576;2023-03-04T10:13:44;101179.94;;;8.47;97.22
18500;BME280;9379;52.134;11.576;2023-03-04T10:16:19;101157.13;;;8.70;95.88
18500;BME280;9379;52.134;11.576;2023-03-04T10:18:50;101177.56;;;8.68;96.57
18500;BME280;9379;52.134;11.576;2023-03-04T10:21:22;101179.63;;;8.39;98.12
18500;BME280;9379;52.134;11.576;2023-03-04T10:23:52;101176.25;;;8.37;99.12
18500;BME280;9379;52.134;11.576;2023-03-04T10:26:20;101190.59;;;8.20;100.00
18500;BME280;9379;52.134;11.576;2023-03-04T10:28:49;101189.41;;;7.86;100.00
18500;BME280;9379;52.134;11.576;2023-03-04T10:31:20;101199.00;;;7.35;100.00
18500;BME280;9379;52.134;11.576;2023-03-04T10:33:48;101190.06;;;8.02;100.00
18500;BME280;9379;52.134;11.576;2023-03-04T10:36:38;101190.44;;;7.31;100.00
18500;BME280;9379;52.134;11.576;2023-03-04T10:39:11;101199.09;;;7.60;99.95
18500;BME280;9379;52.134;11.576;2023-03-04T10:41:41;101193.50;;;7.38;99.14
18500;BME280;9379;52.134;11.576;2023-03-04T10:44:15;101195.53;;;7.34;97.44
18500;BME280;9379;52.134;11.576;2023-03-04T10:46:44;101192.59;;;7.51;96.17
18500;BME280;9379;52.134;11.576;2023-03-04T10:49:12;101194.59;;;7.48;94.64
18500;BME280;9379;52.134;11.576;2023-03-04T10:51:42;101201.22;;;7.68;93.75
18500;BME280;9379;52.134;11.576;2023-03-04T10:54:24;101189.53;;;7.45;92.21
18500;BME280;9379;52.134;11.576;2023-03-04T10:56:54;101195.94;;;7.68;92.66
18500;BME280;9379;52.134;11.576;2023-03-04T10:59:41;101202.16;;;7.54;92.65
18500;BME280;9379;52.134;11.576;2023-03-04T11:02:19;101211.13;;;7.91;90.91
18500;BME280;9379;52.134;11.576;2023-03-04T11:05:05;101207.16;;;7.71;88.36
18500;BME280;9379;52.134;11.576;2023-03-04T11:07:38;101202.47;;;8.02;84.57
18500;BME280;9379;52.134;11.576;2023-03-04T11:10:09;101196.56;;;8.24;84.49
18500;BME280;9379;52.134;11.576;2023-03-04T11:12:39;101199.97;;;8.51;83.38
18500;BME280;9379;52.134;11.576;2023-03-04T11:15:17;101205.63;;;8.19;82.95
18500;BME280;9379;52.134;11.576;2023-03-04T11:17:48;101189.41;;;7.86;82.11
18500;BME280;9379;52.134;11.576;2023-03-04T11:20:25;101197.69;;;8.07;83.08
18500;BME280;9379;52.134;11.576;2023-03-04T11:22:54;101194.81;;;8.10;82.17
18500;BME280;9379;52.134;11.576;2023-03-04T11:25:25;101201.91;;;7.97;82.03
18500;BME280;9379;52.134;11.576;2023-03-04T11:27:55;101200.22;;;8.21;82.39
18500;BME280;9379;52.134;11.576;2023-03-04T11:33:07;101192.63;;;8.29;82.78
18500;BME280;9379;52.134;11.576;2023-03-04T11:35:41;101190.91;;;8.03;83.84
18500;BME280;9379;52.134;11.576;2023-03-04T11:38:15;101194.94;;;7.96;83.78
18500;BME280;9379;52.134;11.576;2023-03-04T11:40:47;101199.94;;;8.00;83.84
18500;BME280;9379;52.134;11.576;2023-03-04T11:43:17;101193.56;;;8.03;83.58
18500;BME280;9379;52.134;11.576;2023-03-04T11:45:59;101192.25;;;7.83;83.77
18500;BME280;9379;52.134;11.576;2023-03-04T11:48:41;101191.19;;;7.73;85.25
18500;BME280;9379;52.134;11.576;2023-03-04T11:51:16;101178.81;;;7.99;85.34
18500;BME280;9379;52.134;11.576;2023-03-04T11:53:58;101185.75;;;8.14;84.64
18500;BME280;9379;52.134;11.576;2023-03-04T11:56:30;101184.25;;;8.10;84.48
18500;BME280;9379;52.134;11.576;2023-03-04T11:59:26;101184.59;;;8.43;84.31
18500;BME280;9379;52.134;11.576;2023-03-04T12:02:09;101178.09;;;8.09;84.39
18500;BME280;9379;52.134;11.576;2023-03-04T12:05:02;101183.09;;;8.01;84.24
18500;BME280;9379;52.134;11.576;2023-03-04T12:07:50;101179.38;;;8.16;83.86
18500;BME280;9379;52.134;11.576;2023-03-04T12:10:24;101173.47;;;8.26;80.61
18500;BME280;9379;52.134;11.576;2023-03-04T12:13:14;101163.19;;;8.34;79.57
18500;BME280;9379;52.134;11.576;2023-03-04T12:15:49;101164.78;;;8.24;77.30
18500;BME280;9379;52.134;11.576;2023-03-04T12:18:34;101165.50;;;8.26;77.56
18500;BME280;9379;52.134;11.576;2023-03-04T12:21:19;101168.50;;;8.46;77.65
18500;BME280;9379;52.134;11.576;2023-03-04T12:24:24;101162.13;;;8.24;78.93
18500;BME280;9379;52.134;11.576;2023-03-04T12:26:56;101156.22;;;8.45;79.21
18500;BME280;9379;52.134;11.576;2023-03-04T12:29:31;101159.56;;;7.97;81.29
18500;BME280;9379;52.134;11.576;2023-03-04T12:32:10;101154.50;;;8.44;80.08
18500;BME280;9379;52.134;11.576;2023-03-04T12:34:59;101148.78;;;8.51;79.75
18500;BME280;9379;52.134;11.576;2023-03-04T12:37:39;101156.69;;;8.63;78.38
18500;BME280;9379;52.134;11.576;2023-03-04T12:40:39;101152.88;;;8.80;78.32
18500;BME280;9379;52.134;11.576;2023-03-04T12:43:35;101161.38;;;8.60;78.58
18500;BME280;9379;52.134;11.576;2023-03-04T12:46:30;101160.31;;;8.62;78.68
18500;BME280;9379;52.134;11.576;2023-03-04T12:49:19;101157.13;;;7.94;79.08
18500;BME280;9379;52.134;11.576;2023-03-04T12:51:53;101152.06;;;8.03;78.57
18500;BME280;9379;52.134;11.576;2023-03-04T12:54:31;101156.28;;;8.31;78.49
18500;BME280;9379;52.134;11.576;2023-03-04T12:57:02;101155.25;;;8.46;78.64
18500;BME280;9379;52.134;11.576;2023-03-04T12:59:35;101144.56;;;8.23;77.89
18500;BME280;9379;52.134;11.576;2023-03-04T13:02:17;101149.63;;;8.26;78.35
18500;BME280;9379;52.134;11.576;2023-03-04T13:04:57;101161.06;;;8.26;79.11
18500;BME280;9379;52.134;11.576;2023-03-04T13:07:38;101153.38;;;8.36;78.35
18500;BME280;9379;52.134;11.576;2023-03-04T13:10:11;101148.59;;;8.77;78.32
18500;BME280;9379;52.134;11.576;2023-03-04T13:12:46;101161.50;;;8.45;77.43
18500;BME280;9379;52.134;11.576;2023-03-04T13:15:34;101152.59;;;8.34;77.48
18500;BME280;9379;52.134;11.576;2023-03-04T13:18:12;101140.31;;;8.45;78.18
18500;BME280;9379;52.134;11.576;2023-03-04T13:21:05;101143.25;;;8.28;78.30
18500;BME280;9379;52.134;11.576;2023-03-04T13:23:33;101152.66;;;8.70;78.81
18500;BME280;9379;52.134;11.576;2023-03-04T13:26:31;101150.59;;;8.37;79.52
18500;BME280;9379;52.134;11.576;2023-03-04T13:32:02;101153.47;;;8.34;79.46
18500;BME280;9379;52.134;11.576;2023-03-04T13:34:45;101145.28;;;8.12;78.33
18500;BME280;9379;52.134;11.576;2023-03-04T13:37:32;101152.78;;;8.18;78.85
18500;BME280;9379;52.134;11.576;2023-03-04T13:40:33;101150.72;;;8.36;77.69
18500;BME280;9379;52.134;11.576;2023-03-04T13:43:23;101147.81;;;8.52;77.26
18500;BME280;9379;52.134;11.576;2023-03-04T13:45:50;101134.91;;;8.47;76.26